Time,TemperatureF,DewpointF,PressureIn,WindDirection,WindDirectionDegrees,WindSpeedMPH,WindSpeedGustMPH,Humidity,HourlyPrecipIn,Conditions,Clouds,dailyrainin,SoftwareType,DateUTC
2013-05-03 00:01:00,55.8,50.3,30.21,ENE,68,0.4,0.4,82,0.00,,,0.00,WUHU216HW,2013-05-03 04:01:00,
2013-05-03 00:06:00,55.8,50.3,30.21,ENE,68,0.0,0.4,82,0.00,,,0.00,WUHU216HW,2013-05-03 04:06:00,
2013-05-03 00:11:00,55.6,50.5,30.21,NE,45,0.0,0.9,83,0.00,,,0.00,WUHU216HW,2013-05-03 04:11:00,
2013-05-03 00:16:00,55.4,50.3,30.21,NE,45,0.4,0.9,83,0.00,,,0.00,WUHU216HW,2013-05-03 04:16:00,
2013-05-03 00:21:00,55.4,50.3,30.21,NE,45,0.0,0.4,83,0.00,,,0.00,WUHU216HW,2013-05-03 04:21:00,
2013-05-03 00:26:00,55.3,50.1,30.21,NE,45,0.0,0.4,83,0.00,,,0.00,WUHU216HW,2013-05-03 04:26:00,
2013-05-03 00:31:00,55.3,50.1,30.20,ENE,68,0.2,0.4,83,0.00,,,0.00,WUHU216HW,2013-05-03 04:31:00,
2013-05-03 00:36:00,55.1,50.0,30.20,NE,45,0.2,0.4,83,0.00,,,0.00,WUHU216HW,2013-05-03 04:36:00,
2013-05-03 00:41:00,54.9,50.1,30.20,NE,45,0.0,0.4,84,0.00,,,0.00,WUHU216HW,2013-05-03 04:41:00,
2013-05-03 00:46:00,54.7,50.0,30.20,NE,45,0.0,0.4,84,0.00,,,0.00,WUHU216HW,2013-05-03 04:46:00,
2013-05-03 00:51:00,54.5,49.8,30.19,NNE,23,0.0,0.4,84,0.00,,,0.00,WUHU216HW,2013-05-03 04:51:00,
2013-05-03 00:56:00,54.5,49.8,30.20,North,0,0.0,0.4,84,0.00,,,0.00,WUHU216HW,2013-05-03 04:56:00,
2013-05-03 01:01:00,54.5,49.8,30.19,North,0,0.0,0.4,84,0.00,,,0.00,WUHU216HW,2013-05-03 05:01:00,
2013-05-03 01:06:00,54.5,49.8,30.20,North,0,0.4,0.4,84,0.00,,,0.00,WUHU216HW,2013-05-03 05:06:00,
2013-05-03 01:11:00,54.4,49.6,30.19,North,0,0.4,0.4,84,0.00,,,0.00,WUHU216HW,2013-05-03 05:11:00,
2013-05-03 01:16:00,54.0,49.2,30.19,North,0,0.0,0.4,84,0.00,,,0.00,WUHU216HW,2013-05-03 05:16:00,
2013-05-03 01:21:00,54.0,49.6,30.19,North,0,0.4,0.4,85,0.00,,,0.00,WUHU216HW,2013-05-03 05:21:00,
2013-05-03 01:26:00,54.0,49.6,30.19,NE,45,0.4,0.7,85,0.00,,,0.00,WUHU216HW,2013-05-03 05:26:00,
2013-05-03 01:31:00,53.6,49.2,30.19,East,90,0.0,0.7,85,0.00,,,0.00,WUHU216HW,2013-05-03 05:31:00,
2013-05-03 01:36:00,53.6,49.2,30.18,ENE,68,0.0,0.4,85,0.00,,,0.00,WUHU216HW,2013-05-03 05:36:00,
2013-05-03 01:41:00,53.6,49.2,30.19,NNE,23,0.0,0.4,85,0.00,,,0.00,WUHU216HW,2013-05-03 05:41:00,
2013-05-03 01:46:00,53.5,49.1,30.19,North,0,0.0,0.4,85,0.00,,,0.00,WUHU216HW,2013-05-03 05:46:00,
2013-05-03 01:51:00,53.5,49.3,30.19,North,0,0.2,0.4,86,0.00,,,0.00,WUHU216HW,2013-05-03 05:51:00,
2013-05-03 01:56:00,53.5,49.3,30.19,NNW,338,0.0,0.4,86,0.00,,,0.00,WUHU216HW,2013-05-03 05:56:00,
2013-05-03 02:01:00,53.5,49.3,30.19,NNW,338,0.0,0.2,86,0.00,,,0.00,WUHU216HW,2013-05-03 06:01:00,
2013-05-03 02:06:00,53.6,49.5,30.18,NNW,338,0.0,0.4,86,0.00,,,0.00,WUHU216HW,2013-05-03 06:06:00,
2013-05-03 02:11:00,53.5,49.3,30.18,NNW,338,0.0,0.4,86,0.00,,,0.00,WUHU216HW,2013-05-03 06:11:00,
2013-05-03 02:16:00,53.5,49.3,30.18,NNW,338,0.0,0.0,86,0.00,,,0.00,WUHU216HW,2013-05-03 06:16:00,
2013-05-03 02:21:00,53.3,49.1,30.18,NNW,338,0.0,0.0,86,0.00,,,0.00,WUHU216HW,2013-05-03 06:21:00,
2013-05-03 02:26:00,53.3,49.1,30.17,NNW,338,0.0,0.0,86,0.00,,,0.00,WUHU216HW,2013-05-03 06:26:00,
2013-05-03 02:31:00,52.9,48.8,30.17,NNW,338,0.7,0.7,86,0.00,,,0.00,WUHU216HW,2013-05-03 06:31:00,
2013-05-03 02:36:00,52.7,48.6,30.17,NNW,338,0.4,0.7,86,0.00,,,0.00,WUHU216HW,2013-05-03 06:36:00,
2013-05-03 02:41:00,52.4,48.2,30.17,North,0,0.0,0.7,86,0.00,,,0.00,WUHU216HW,2013-05-03 06:41:00,
2013-05-03 02:46:00,52.2,48.1,30.17,North,0,0.4,0.4,86,0.00,,,0.00,WUHU216HW,2013-05-03 06:46:00,
2013-05-03 02:51:00,52.2,48.1,30.17,North,0,0.0,0.4,86,0.00,,,0.00,WUHU216HW,2013-05-03 06:51:00,
2013-05-03 02:56:00,52.0,48.3,30.17,North,0,0.0,0.4,87,0.00,,,0.00,WUHU216HW,2013-05-03 06:56:00,
2013-05-03 03:01:00,51.8,48.1,30.16,NNE,23,0.4,0.4,87,0.00,,,0.00,WUHU216HW,2013-05-03 07:01:00,
2013-05-03 03:06:00,51.8,48.1,30.16,NNE,23,0.4,0.4,87,0.00,,,0.00,WUHU216HW,2013-05-03 07:06:00,
2013-05-03 03:11:00,51.7,47.9,30.16,NNE,23,0.4,0.4,87,0.00,,,0.00,WUHU216HW,2013-05-03 07:11:00,
2013-05-03 03:16:00,51.5,47.7,30.16,NNE,23,0.4,0.9,87,0.00,,,0.00,WUHU216HW,2013-05-03 07:16:00,
2013-05-03 03:21:00,51.5,48.0,30.16,NNE,23,0.2,0.9,88,0.00,,,0.00,WUHU216HW,2013-05-03 07:21:00,
2013-05-03 03:26:00,51.3,47.8,30.16,NNW,338,0.7,0.9,88,0.00,,,0.00,WUHU216HW,2013-05-03 07:26:00,
2013-05-03 03:31:00,51.3,47.8,30.16,North,0,0.7,0.9,88,0.00,,,0.00,WUHU216HW,2013-05-03 07:31:00,
2013-05-03 03:36:00,51.1,47.6,30.16,North,0,0.2,0.9,88,0.00,,,0.00,WUHU216HW,2013-05-03 07:36:00,
2013-05-03 03:41:00,51.1,47.6,30.16,NNE,23,0.0,0.7,88,0.00,,,0.00,WUHU216HW,2013-05-03 07:41:00,
2013-05-03 03:46:00,51.1,47.6,30.16,NE,45,0.4,1.1,88,0.00,,,0.00,WUHU216HW,2013-05-03 07:46:00,
2013-05-03 03:51:00,50.9,47.4,30.16,NE,45,0.2,1.1,88,0.00,,,0.00,WUHU216HW,2013-05-03 07:51:00,
2013-05-03 03:56:00,50.9,47.4,30.16,NNE,23,0.2,1.1,88,0.00,,,0.00,WUHU216HW,2013-05-03 07:56:00,
2013-05-03 04:01:00,50.9,47.4,30.16,NNE,23,0.9,0.9,88,0.00,,,0.00,WUHU216HW,2013-05-03 08:01:00,
2013-05-03 04:06:00,50.9,47.4,30.16,NE,45,0.4,1.1,88,0.00,,,0.00,WUHU216HW,2013-05-03 08:06:00,
2013-05-03 04:11:00,50.8,47.3,30.16,NNE,23,0.9,1.1,88,0.00,,,0.00,WUHU216HW,2013-05-03 08:11:00,
2013-05-03 04:16:00,50.8,47.3,30.16,ENE,68,0.4,0.9,88,0.00,,,0.00,WUHU216HW,2013-05-03 08:16:00,
2013-05-03 04:21:00,50.8,47.3,30.16,NE,45,0.7,1.1,88,0.00,,,0.00,WUHU216HW,2013-05-03 08:21:00,
2013-05-03 04:26:00,50.9,47.4,30.16,NNE,23,0.4,1.1,88,0.00,,,0.00,WUHU216HW,2013-05-03 08:26:00,
2013-05-03 04:31:00,50.9,47.4,30.16,NE,45,0.2,1.6,88,0.00,,,0.00,WUHU216HW,2013-05-03 08:31:00,
2013-05-03 04:36:00,50.8,47.3,30.16,NNE,23,0.4,1.6,88,0.00,,,0.00,WUHU216HW,2013-05-03 08:36:00,
2013-05-03 04:41:00,50.8,47.3,30.16,NNE,23,0.4,1.1,88,0.00,,,0.00,WUHU216HW,2013-05-03 08:41:00,
2013-05-03 04:46:00,50.8,47.6,30.16,NE,45,0.4,1.1,89,0.00,,,0.00,WUHU216HW,2013-05-03 08:46:00,
2013-05-03 04:51:00,50.8,47.3,30.16,NE,45,1.1,1.1,88,0.00,,,0.00,WUHU216HW,2013-05-03 08:51:00,
2013-05-03 04:56:00,50.6,47.1,30.16,NE,45,0.4,1.1,88,0.00,,,0.00,WUHU216HW,2013-05-03 08:56:00,
2013-05-03 05:01:00,50.6,47.1,30.16,NE,45,1.1,1.1,88,0.00,,,0.00,WUHU216HW,2013-05-03 09:01:00,
2013-05-03 05:06:00,50.6,47.1,30.16,NE,45,0.9,1.1,88,0.00,,,0.00,WUHU216HW,2013-05-03 09:06:00,
2013-05-03 05:11:00,50.6,47.1,30.16,NE,45,0.4,1.3,88,0.00,,,0.00,WUHU216HW,2013-05-03 09:11:00,
2013-05-03 05:16:00,50.6,47.1,30.16,North,0,0.2,1.3,88,0.00,,,0.00,WUHU216HW,2013-05-03 09:16:00,
2013-05-03 05:21:00,50.6,47.1,30.16,NNE,23,0.4,1.1,88,0.00,,,0.00,WUHU216HW,2013-05-03 09:21:00,
2013-05-03 05:26:00,50.6,47.1,30.16,NNE,23,0.0,0.4,88,0.00,,,0.00,WUHU216HW,2013-05-03 09:26:00,
2013-05-03 05:31:00,50.6,47.1,30.16,NE,45,0.7,1.1,88,0.00,,,0.00,WUHU216HW,2013-05-03 09:31:00,
2013-05-03 05:36:00,50.6,47.1,30.16,NNE,23,0.4,1.1,88,0.00,,,0.00,WUHU216HW,2013-05-03 09:36:00,
2013-05-03 05:41:00,50.4,46.9,30.16,NNE,23,0.0,0.9,88,0.00,,,0.00,WUHU216HW,2013-05-03 09:41:00,
2013-05-03 05:46:00,50.4,46.9,30.16,NNE,23,0.0,0.4,88,0.00,,,0.00,WUHU216HW,2013-05-03 09:46:00,
2013-05-03 05:51:00,50.4,46.9,30.17,NNW,338,0.0,0.7,88,0.00,,,0.00,WUHU216HW,2013-05-03 09:51:00,
2013-05-03 05:56:00,50.4,46.9,30.17,NNW,338,0.0,0.7,88,0.00,,,0.00,WUHU216HW,2013-05-03 09:56:00,
2013-05-03 06:01:00,50.2,46.7,30.17,NNW,338,0.4,0.4,88,0.00,,,0.00,WUHU216HW,2013-05-03 10:01:00,
2013-05-03 06:06:00,50.0,46.5,30.17,North,0,0.4,0.9,88,0.00,,,0.00,WUHU216HW,2013-05-03 10:06:00,
2013-05-03 06:11:00,50.0,46.5,30.17,North,0,0.2,0.9,88,0.00,,,0.00,WUHU216HW,2013-05-03 10:11:00,
2013-05-03 06:16:00,50.0,46.5,30.17,NNE,23,0.9,0.9,88,0.00,,,0.00,WUHU216HW,2013-05-03 10:16:00,
2013-05-03 06:21:00,49.9,46.4,30.17,North,0,0.2,1.1,88,0.00,,,0.00,WUHU216HW,2013-05-03 10:21:00,
2013-05-03 06:26:00,49.9,46.4,30.17,NNE,23,0.7,1.1,88,0.00,,,0.00,WUHU216HW,2013-05-03 10:26:00,
2013-05-03 06:31:00,49.9,46.4,30.17,NNE,23,0.2,0.9,88,0.00,,,0.00,WUHU216HW,2013-05-03 10:31:00,
2013-05-03 06:36:00,49.9,46.4,30.17,NNE,23,0.4,1.1,88,0.00,,,0.00,WUHU216HW,2013-05-03 10:36:00,
2013-05-03 06:41:00,49.9,46.4,30.17,NE,45,0.9,1.1,88,0.00,,,0.00,WUHU216HW,2013-05-03 10:41:00,
2013-05-03 06:46:00,49.9,46.7,30.17,NE,45,0.7,1.3,89,0.00,,,0.00,WUHU216HW,2013-05-03 10:46:00,
2013-05-03 06:51:00,49.9,46.7,30.18,NE,45,0.9,1.6,89,0.00,,,0.00,WUHU216HW,2013-05-03 10:51:00,
2013-05-03 06:56:00,50.0,46.9,30.18,NE,45,1.1,1.6,89,0.00,,,0.00,WUHU216HW,2013-05-03 10:56:00,
2013-05-03 07:01:00,50.0,46.9,30.18,ENE,68,1.1,1.6,89,0.00,,,0.00,WUHU216HW,2013-05-03 11:01:00,
2013-05-03 07:06:00,50.0,47.2,30.18,NE,45,0.9,1.6,90,0.00,,,0.00,WUHU216HW,2013-05-03 11:06:00,
2013-05-03 07:11:00,50.2,47.1,30.19,NE,45,0.4,1.6,89,0.00,,,0.00,WUHU216HW,2013-05-03 11:11:00,
2013-05-03 07:16:00,50.2,47.1,30.19,ENE,68,0.9,1.6,89,0.00,,,0.00,WUHU216HW,2013-05-03 11:16:00,
2013-05-03 07:21:00,50.4,47.3,30.19,NNE,23,0.7,2.0,89,0.00,,,0.00,WUHU216HW,2013-05-03 11:21:00,
2013-05-03 07:26:00,50.4,47.3,30.19,NNE,23,0.9,2.0,89,0.00,,,0.00,WUHU216HW,2013-05-03 11:26:00,
2013-05-03 07:31:00,50.4,47.3,30.19,NE,45,1.1,1.8,89,0.00,,,0.00,WUHU216HW,2013-05-03 11:31:00,
2013-05-03 07:36:00,50.4,47.3,30.19,NE,45,0.2,1.8,89,0.00,,,0.00,WUHU216HW,2013-05-03 11:36:00,
2013-05-03 07:41:00,50.6,47.4,30.19,NNE,23,0.9,1.8,89,0.00,,,0.00,WUHU216HW,2013-05-03 11:41:00,
2013-05-03 07:46:00,50.8,47.6,30.19,ENE,68,1.3,1.8,89,0.00,,,0.00,WUHU216HW,2013-05-03 11:46:00,
2013-05-03 07:51:00,50.9,48.1,30.19,ENE,68,0.7,1.8,90,0.00,,,0.00,WUHU216HW,2013-05-03 11:51:00,
2013-05-03 07:56:00,50.9,48.1,30.19,ENE,68,1.3,2.0,90,0.00,,,0.00,WUHU216HW,2013-05-03 11:56:00,
2013-05-03 08:01:00,51.1,48.0,30.19,NE,45,0.4,2.0,89,0.00,,,0.00,WUHU216HW,2013-05-03 12:01:00,
2013-05-03 08:06:00,51.3,48.2,30.19,ENE,68,0.0,1.8,89,0.00,,,0.00,WUHU216HW,2013-05-03 12:06:00,
2013-05-03 08:11:00,51.3,48.2,30.19,NNE,23,1.1,1.8,89,0.00,,,0.00,WUHU216HW,2013-05-03 12:11:00,
2013-05-03 08:16:00,51.5,48.3,30.19,NE,45,0.7,1.1,89,0.00,,,0.00,WUHU216HW,2013-05-03 12:16:00,
2013-05-03 08:21:00,51.7,48.5,30.19,NE,45,0.7,1.1,89,0.00,,,0.00,WUHU216HW,2013-05-03 12:21:00,
2013-05-03 08:26:00,51.8,48.7,30.20,NNE,23,0.9,1.6,89,0.00,,,0.00,WUHU216HW,2013-05-03 12:26:00,
2013-05-03 08:31:00,52.0,48.9,30.19,ENE,68,2.0,2.5,89,0.00,,,0.00,WUHU216HW,2013-05-03 12:31:00,
2013-05-03 08:36:00,52.4,49.2,30.19,East,90,0.0,2.5,89,0.00,,,0.00,WUHU216HW,2013-05-03 12:36:00,
2013-05-03 08:41:00,52.6,49.4,30.19,SE,135,1.6,2.0,89,0.00,,,0.00,WUHU216HW,2013-05-03 12:41:00,
2013-05-03 08:46:00,52.9,49.8,30.19,ENE,68,0.4,2.5,89,0.00,,,0.00,WUHU216HW,2013-05-03 12:46:00,
2013-05-03 08:51:00,53.1,49.6,30.19,ENE,68,0.7,2.5,88,0.00,,,0.00,WUHU216HW,2013-05-03 12:51:00,
2013-05-03 08:56:00,53.5,50.0,30.19,ENE,68,0.4,1.8,88,0.00,,,0.00,WUHU216HW,2013-05-03 12:56:00,
2013-05-03 09:01:00,53.6,50.1,30.19,ENE,68,0.7,1.1,88,0.00,,,0.00,WUHU216HW,2013-05-03 13:01:00,
2013-05-03 09:06:00,54.0,50.5,30.19,East,90,0.4,1.3,88,0.00,,,0.00,WUHU216HW,2013-05-03 13:06:00,
2013-05-03 09:11:00,54.2,50.7,30.19,North,0,0.4,1.3,88,0.00,,,0.00,WUHU216HW,2013-05-03 13:11:00,
2013-05-03 09:16:00,54.4,50.6,30.20,ENE,68,2.0,4.7,87,0.00,,,0.00,WUHU216HW,2013-05-03 13:16:00,
2013-05-03 09:21:00,54.7,50.9,30.19,ENE,68,1.1,4.7,87,0.00,,,0.00,WUHU216HW,2013-05-03 13:21:00,
2013-05-03 09:26:00,55.1,51.0,30.20,ESE,113,2.0,2.5,86,0.00,,,0.00,WUHU216HW,2013-05-03 13:26:00,
2013-05-03 09:31:00,55.3,51.1,30.20,NNE,23,1.6,3.8,86,0.00,,,0.00,WUHU216HW,2013-05-03 13:31:00,
2013-05-03 09:36:00,55.4,51.3,30.20,NE,45,0.7,3.8,86,0.00,,,0.00,WUHU216HW,2013-05-03 13:36:00,
2013-05-03 09:41:00,55.8,51.7,30.20,SE,135,1.1,3.6,86,0.00,,,0.00,WUHU216HW,2013-05-03 13:41:00,
2013-05-03 09:46:00,56.0,51.9,30.20,NNE,23,0.7,2.5,86,0.00,,,0.00,WUHU216HW,2013-05-03 13:46:00,
2013-05-03 09:51:00,56.2,52.0,30.20,NE,45,1.6,2.0,86,0.00,,,0.00,WUHU216HW,2013-05-03 13:51:00,
2013-05-03 09:56:00,56.5,52.0,30.20,East,90,0.4,2.0,85,0.00,,,0.00,WUHU216HW,2013-05-03 13:56:00,
2013-05-03 10:01:00,56.9,52.0,30.20,NE,45,1.8,2.5,84,0.00,,,0.00,WUHU216HW,2013-05-03 14:01:00,
2013-05-03 10:06:00,56.9,52.0,30.20,ESE,113,1.3,2.5,84,0.00,,,0.00,WUHU216HW,2013-05-03 14:06:00,
2013-05-03 10:11:00,57.1,52.2,30.20,NE,45,1.3,3.4,84,0.00,,,0.00,WUHU216HW,2013-05-03 14:11:00,
2013-05-03 10:16:00,57.2,52.4,30.21,ENE,68,0.4,3.4,84,0.00,,,0.00,WUHU216HW,2013-05-03 14:16:00,
2013-05-03 10:21:00,57.2,52.4,30.21,NNE,23,3.1,3.1,84,0.00,,,0.00,WUHU216HW,2013-05-03 14:21:00,
2013-05-03 10:26:00,57.4,52.6,30.21,ENE,68,0.7,3.1,84,0.00,,,0.00,WUHU216HW,2013-05-03 14:26:00,
2013-05-03 10:31:00,57.6,52.5,30.21,NE,45,3.4,3.4,83,0.00,,,0.00,WUHU216HW,2013-05-03 14:31:00,
2013-05-03 10:36:00,57.8,52.7,30.21,ENE,68,2.0,3.4,83,0.00,,,0.00,WUHU216HW,2013-05-03 14:36:00,
2013-05-03 10:41:00,57.8,52.7,30.21,East,90,0.7,3.4,83,0.00,,,0.00,WUHU216HW,2013-05-03 14:41:00,
2013-05-03 10:46:00,58.1,53.0,30.21,ENE,68,1.3,2.5,83,0.00,,,0.00,WUHU216HW,2013-05-03 14:46:00,
2013-05-03 10:51:00,58.3,52.8,30.21,ENE,68,1.6,2.7,82,0.00,,,0.00,WUHU216HW,2013-05-03 14:51:00,
2013-05-03 10:56:00,58.7,53.2,30.21,ENE,68,0.2,2.7,82,0.00,,,0.00,WUHU216HW,2013-05-03 14:56:00,
2013-05-03 11:01:00,59.0,53.3,30.20,ENE,68,1.8,2.5,81,0.00,,,0.00,WUHU216HW,2013-05-03 15:01:00,
2013-05-03 11:06:00,59.6,53.8,30.20,ENE,68,1.3,3.4,81,0.00,,,0.00,WUHU216HW,2013-05-03 15:06:00,
2013-05-03 11:11:00,60.1,54.0,30.21,ENE,68,2.7,3.4,80,0.00,,,0.00,WUHU216HW,2013-05-03 15:11:00,
2013-05-03 11:16:00,60.5,53.6,30.20,ENE,68,2.7,4.3,78,0.00,,,0.00,WUHU216HW,2013-05-03 15:16:00,
2013-05-03 11:21:00,60.7,53.5,30.20,ESE,113,2.0,4.3,77,0.00,,,0.00,WUHU216HW,2013-05-03 15:21:00,
2013-05-03 11:26:00,60.8,54.0,30.20,ESE,113,1.6,3.8,78,0.00,,,0.00,WUHU216HW,2013-05-03 15:26:00,
2013-05-03 11:31:00,61.4,54.1,30.20,ENE,68,0.9,2.5,77,0.00,,,0.00,WUHU216HW,2013-05-03 15:31:00,
2013-05-03 11:36:00,61.7,54.5,30.20,East,90,1.6,2.7,77,0.00,,,0.00,WUHU216HW,2013-05-03 15:36:00,
2013-05-03 11:41:00,62.1,54.5,30.20,ENE,68,1.6,2.7,76,0.00,,,0.00,WUHU216HW,2013-05-03 15:41:00,
2013-05-03 11:46:00,62.3,53.8,30.20,ENE,68,2.2,2.5,74,0.00,,,0.00,WUHU216HW,2013-05-03 15:46:00,
2013-05-03 11:51:00,62.6,54.5,30.20,ESE,113,2.5,3.8,75,0.00,,,0.00,WUHU216HW,2013-05-03 15:51:00,
2013-05-03 11:56:00,63.0,54.5,30.20,SE,135,0.9,3.8,74,0.00,,,0.00,WUHU216HW,2013-05-03 15:56:00,
2013-05-03 12:01:00,63.0,54.5,30.20,East,90,2.0,3.4,74,0.00,,,0.00,WUHU216HW,2013-05-03 16:01:00,
2013-05-03 12:06:00,63.5,54.4,30.20,NE,45,1.8,3.8,72,0.00,,,0.00,WUHU216HW,2013-05-03 16:06:00,
2013-05-03 12:11:00,63.7,54.9,30.20,ESE,113,2.5,3.8,73,0.00,,,0.00,WUHU216HW,2013-05-03 16:11:00,
2013-05-03 12:16:00,64.3,54.4,30.20,NE,45,2.2,3.4,70,0.00,,,0.00,WUHU216HW,2013-05-03 16:16:00,
2013-05-03 12:21:00,64.1,54.2,30.19,North,0,2.0,3.4,70,0.00,,,0.00,WUHU216HW,2013-05-03 16:21:00,
2013-05-03 12:26:00,64.1,54.2,30.19,East,90,1.1,3.6,70,0.00,,,0.00,WUHU216HW,2013-05-03 16:26:00,
2013-05-03 12:31:00,64.1,54.2,30.19,North,0,2.0,3.8,70,0.00,,,0.00,WUHU216HW,2013-05-03 16:31:00,
2013-05-03 12:36:00,64.4,54.5,30.19,NE,45,2.5,3.8,70,0.00,,,0.00,WUHU216HW,2013-05-03 16:36:00,
2013-05-03 12:41:00,64.6,54.7,30.19,North,0,1.8,3.4,70,0.00,,,0.00,WUHU216HW,2013-05-03 16:41:00,
2013-05-03 12:46:00,65.0,53.7,30.18,ENE,68,3.4,3.4,67,0.00,,,0.00,WUHU216HW,2013-05-03 16:46:00,
2013-05-03 12:51:00,65.3,54.6,30.18,ENE,68,2.5,4.0,68,0.00,,,0.00,WUHU216HW,2013-05-03 16:51:00,
2013-05-03 12:56:00,65.7,54.5,30.18,NE,45,0.7,4.0,67,0.00,,,0.00,WUHU216HW,2013-05-03 16:56:00,
2013-05-03 13:01:00,65.9,55.0,30.18,ESE,113,1.8,3.4,68,0.00,,,0.00,WUHU216HW,2013-05-03 17:01:00,
2013-05-03 13:06:00,66.2,55.4,30.17,ESE,113,3.4,4.0,68,0.00,,,0.00,WUHU216HW,2013-05-03 17:06:00,
2013-05-03 13:11:00,66.6,54.8,30.17,East,90,2.9,4.7,66,0.00,,,0.00,WUHU216HW,2013-05-03 17:11:00,
2013-05-03 13:16:00,66.6,54.0,30.17,NE,45,2.5,5.4,64,0.00,,,0.00,WUHU216HW,2013-05-03 17:16:00,
2013-05-03 13:21:00,66.4,54.7,30.17,ESE,113,1.1,5.4,66,0.00,,,0.00,WUHU216HW,2013-05-03 17:21:00,
2013-05-03 13:26:00,66.2,54.1,30.17,East,90,1.1,3.6,65,0.00,,,0.00,WUHU216HW,2013-05-03 17:26:00,
2013-05-03 13:31:00,66.6,54.5,30.17,ESE,113,0.7,4.0,65,0.00,,,0.00,WUHU216HW,2013-05-03 17:31:00,
2013-05-03 13:36:00,67.1,55.8,30.16,ESE,113,1.8,4.0,67,0.00,,,0.00,WUHU216HW,2013-05-03 17:36:00,
2013-05-03 13:41:00,67.3,55.1,30.16,NNE,23,1.8,3.4,65,0.00,,,0.00,WUHU216HW,2013-05-03 17:41:00,
2013-05-03 13:46:00,67.3,55.1,30.16,North,0,2.5,2.7,65,0.00,,,0.00,WUHU216HW,2013-05-03 17:46:00,
2013-05-03 13:51:00,67.3,55.5,30.16,East,90,4.7,4.7,66,0.00,,,0.00,WUHU216HW,2013-05-03 17:51:00,
2013-05-03 13:56:00,67.3,54.7,30.16,ENE,68,2.2,4.7,64,0.00,,,0.00,WUHU216HW,2013-05-03 17:56:00,
2013-05-03 14:01:00,67.3,54.7,30.16,ENE,68,2.0,4.7,64,0.00,,,0.00,WUHU216HW,2013-05-03 18:01:00,
2013-05-03 14:06:00,67.7,54.6,30.16,ENE,68,2.5,3.8,63,0.00,,,0.00,WUHU216HW,2013-05-03 18:06:00,
2013-05-03 14:11:00,67.7,54.6,30.15,ENE,68,1.8,4.0,63,0.00,,,0.00,WUHU216HW,2013-05-03 18:11:00,
2013-05-03 14:16:00,67.7,54.2,30.15,ENE,68,2.5,4.0,62,0.00,,,0.00,WUHU216HW,2013-05-03 18:16:00,
2013-05-03 14:21:00,67.5,54.0,30.15,East,90,3.4,4.0,62,0.00,,,0.00,WUHU216HW,2013-05-03 18:21:00,
2013-05-03 14:26:00,67.9,53.9,30.15,North,0,2.7,4.0,61,0.00,,,0.00,WUHU216HW,2013-05-03 18:26:00,
2013-05-03 14:31:00,68.4,54.5,30.15,ENE,68,0.9,4.3,61,0.00,,,0.00,WUHU216HW,2013-05-03 18:31:00,
2013-05-03 14:36:00,68.4,53.6,30.14,East,90,2.5,4.3,59,0.00,,,0.00,WUHU216HW,2013-05-03 18:36:00,
2013-05-03 14:41:00,68.8,54.8,30.14,SE,135,2.0,4.0,61,0.00,,,0.00,WUHU216HW,2013-05-03 18:41:00,
2013-05-03 14:46:00,69.1,54.2,30.14,East,90,2.0,3.1,59,0.00,,,0.00,WUHU216HW,2013-05-03 18:46:00,
2013-05-03 14:51:00,69.1,53.7,30.14,ENE,68,2.0,4.7,58,0.00,,,0.00,WUHU216HW,2013-05-03 18:51:00,
2013-05-03 14:56:00,69.3,53.9,30.14,ENE,68,0.7,4.7,58,0.00,,,0.00,WUHU216HW,2013-05-03 18:56:00,
2013-05-03 15:01:00,69.5,53.6,30.14,ENE,68,2.0,3.8,57,0.00,,,0.00,WUHU216HW,2013-05-03 19:01:00,
2013-05-03 15:06:00,69.3,53.4,30.13,East,90,2.2,4.0,57,0.00,,,0.00,WUHU216HW,2013-05-03 19:06:00,
2013-05-03 15:11:00,69.7,54.7,30.13,NNE,23,1.8,4.0,59,0.00,,,0.00,WUHU216HW,2013-05-03 19:11:00,
2013-05-03 15:16:00,69.8,54.5,30.13,ESE,113,1.1,3.8,58,0.00,,,0.00,WUHU216HW,2013-05-03 19:16:00,
2013-05-03 15:21:00,69.8,54.9,30.13,North,0,1.6,3.8,59,0.00,,,0.00,WUHU216HW,2013-05-03 19:21:00,
2013-05-03 15:26:00,70.2,55.3,30.12,East,90,1.1,4.5,59,0.00,,,0.00,WUHU216HW,2013-05-03 19:26:00,
2013-05-03 15:31:00,70.2,54.7,30.12,ENE,68,0.7,4.5,58,0.00,,,0.00,WUHU216HW,2013-05-03 19:31:00,
2013-05-03 15:36:00,70.4,54.9,30.12,NNE,23,1.8,3.6,58,0.00,,,0.00,WUHU216HW,2013-05-03 19:36:00,
2013-05-03 15:41:00,70.6,54.5,30.12,ENE,68,0.2,3.8,57,0.00,,,0.00,WUHU216HW,2013-05-03 19:41:00,
2013-05-03 15:46:00,70.2,54.3,30.12,ESE,113,4.7,5.8,57,0.00,,,0.00,WUHU216HW,2013-05-03 19:46:00,
2013-05-03 15:51:00,70.2,54.3,30.12,East,90,1.1,5.8,57,0.00,,,0.00,WUHU216HW,2013-05-03 19:51:00,
2013-05-03 15:56:00,70.4,53.4,30.12,ENE,68,2.2,4.0,55,0.00,,,0.00,WUHU216HW,2013-05-03 19:56:00,
2013-05-03 16:01:00,70.0,53.1,30.11,East,90,3.4,4.0,55,0.00,,,0.00,WUHU216HW,2013-05-03 20:01:00,
2013-05-03 16:06:00,69.5,52.1,30.11,NE,45,1.8,5.8,54,0.00,,,0.00,WUHU216HW,2013-05-03 20:06:00,
2013-05-03 16:11:00,69.5,51.6,30.11,ENE,68,3.8,5.8,53,0.00,,,0.00,WUHU216HW,2013-05-03 20:11:00,
2013-05-03 16:16:00,69.1,51.2,30.11,ENE,68,1.3,4.7,53,0.00,,,0.00,WUHU216HW,2013-05-03 20:16:00,
2013-05-03 16:21:00,69.3,51.9,30.11,ENE,68,1.6,4.7,54,0.00,,,0.00,WUHU216HW,2013-05-03 20:21:00,
2013-05-03 16:26:00,69.5,53.1,30.11,ENE,68,3.6,4.3,56,0.00,,,0.00,WUHU216HW,2013-05-03 20:26:00,
2013-05-03 16:31:00,69.3,52.4,30.11,ENE,68,1.6,3.6,55,0.00,,,0.00,WUHU216HW,2013-05-03 20:31:00,
2013-05-03 16:36:00,69.3,52.4,30.11,ESE,113,2.7,3.6,55,0.00,,,0.00,WUHU216HW,2013-05-03 20:36:00,
2013-05-03 16:41:00,69.3,51.9,30.11,ENE,68,2.2,5.4,54,0.00,,,0.00,WUHU216HW,2013-05-03 20:41:00,
2013-05-03 16:46:00,69.1,52.2,30.11,East,90,3.6,5.4,55,0.00,,,0.00,WUHU216HW,2013-05-03 20:46:00,
2013-05-03 16:51:00,68.8,51.4,30.11,East,90,1.8,4.3,54,0.00,,,0.00,WUHU216HW,2013-05-03 20:51:00,
2013-05-03 16:56:00,68.8,51.0,30.11,East,90,2.0,6.0,53,0.00,,,0.00,WUHU216HW,2013-05-03 20:56:00,
2013-05-03 17:01:00,68.8,50.0,30.11,NE,45,3.1,6.0,51,0.00,,,0.00,WUHU216HW,2013-05-03 21:01:00,
2013-05-03 17:06:00,68.6,50.2,30.11,NNE,23,1.8,3.8,52,0.00,,,0.00,WUHU216HW,2013-05-03 21:06:00,
2013-05-03 17:11:00,68.8,51.0,30.11,ENE,68,1.1,3.8,53,0.00,,,0.00,WUHU216HW,2013-05-03 21:11:00,
2013-05-03 17:16:00,68.6,49.2,30.11,East,90,1.8,4.0,50,0.00,,,0.00,WUHU216HW,2013-05-03 21:16:00,
2013-05-03 17:21:00,68.4,49.6,30.11,East,90,2.2,4.0,51,0.00,,,0.00,WUHU216HW,2013-05-03 21:21:00,
2013-05-03 17:26:00,68.6,49.8,30.11,East,90,1.3,2.9,51,0.00,,,0.00,WUHU216HW,2013-05-03 21:26:00,
2013-05-03 17:31:00,68.4,49.6,30.11,ESE,113,2.9,3.1,51,0.00,,,0.00,WUHU216HW,2013-05-03 21:31:00,
2013-05-03 17:36:00,68.2,49.0,30.11,ESE,113,2.5,3.1,50,0.00,,,0.00,WUHU216HW,2013-05-03 21:36:00,
2013-05-03 17:41:00,68.0,48.8,30.11,East,90,1.8,3.6,50,0.00,,,0.00,WUHU216HW,2013-05-03 21:41:00,
2013-05-03 17:46:00,67.9,48.1,30.12,ENE,68,2.2,4.7,49,0.00,,,0.00,WUHU216HW,2013-05-03 21:46:00,
2013-05-03 17:51:00,67.7,47.3,30.12,NE,45,2.7,4.7,48,0.00,,,0.00,WUHU216HW,2013-05-03 21:51:00,
2013-05-03 17:56:00,67.5,47.1,30.11,ENE,68,1.6,4.7,48,0.00,,,0.00,WUHU216HW,2013-05-03 21:56:00,
2013-05-03 18:01:00,67.3,48.2,30.11,East,90,1.1,2.7,50,0.00,,,0.00,WUHU216HW,2013-05-03 22:01:00,
2013-05-03 18:06:00,67.3,48.2,30.11,NE,45,2.0,2.9,50,0.00,,,0.00,WUHU216HW,2013-05-03 22:06:00,
2013-05-03 18:11:00,67.1,48.4,30.11,East,90,1.3,4.7,51,0.00,,,0.00,WUHU216HW,2013-05-03 22:11:00,
2013-05-03 18:16:00,67.1,49.0,30.11,East,90,1.1,4.7,52,0.00,,,0.00,WUHU216HW,2013-05-03 22:16:00,
2013-05-03 18:21:00,67.1,49.4,30.11,ENE,68,1.1,2.7,53,0.00,,,0.00,WUHU216HW,2013-05-03 22:21:00,
2013-05-03 18:26:00,67.0,49.2,30.11,ENE,68,3.1,3.1,53,0.00,,,0.00,WUHU216HW,2013-05-03 22:26:00,
2013-05-03 18:31:00,66.8,49.2,30.12,East,90,2.5,3.4,53,0.00,,,0.00,WUHU216HW,2013-05-03 22:31:00,
2013-05-03 18:36:00,66.6,48.4,30.12,NE,45,2.5,4.9,52,0.00,,,0.00,WUHU216HW,2013-05-03 22:36:00,
2013-05-03 18:41:00,66.4,47.4,30.12,ENE,68,2.5,4.9,50,0.00,,,0.00,WUHU216HW,2013-05-03 22:41:00,
2013-05-03 18:46:00,65.9,46.2,30.12,ESE,113,5.8,5.8,49,0.00,,,0.00,WUHU216HW,2013-05-03 22:46:00,
2013-05-03 18:51:00,65.7,44.8,30.12,NE,45,1.8,5.8,47,0.00,,,0.00,WUHU216HW,2013-05-03 22:51:00,
2013-05-03 18:56:00,65.5,45.3,30.12,East,90,1.3,5.8,48,0.00,,,0.00,WUHU216HW,2013-05-03 22:56:00,
2013-05-03 19:01:00,65.3,45.7,30.12,East,90,4.0,4.0,49,0.00,,,0.00,WUHU216HW,2013-05-03 23:01:00,
2013-05-03 19:06:00,65.2,45.6,30.12,East,90,2.5,4.0,49,0.00,,,0.00,WUHU216HW,2013-05-03 23:06:00,
2013-05-03 19:11:00,64.8,45.2,30.13,ENE,68,2.5,4.0,49,0.00,,,0.00,WUHU216HW,2013-05-03 23:11:00,
2013-05-03 19:16:00,64.6,45.5,30.13,East,90,1.1,3.4,50,0.00,,,0.00,WUHU216HW,2013-05-03 23:16:00,
2013-05-03 19:21:00,64.4,45.8,30.13,East,90,2.9,2.9,51,0.00,,,0.00,WUHU216HW,2013-05-03 23:21:00,
2013-05-03 19:26:00,64.1,45.0,30.13,East,90,1.6,2.9,50,0.00,,,0.00,WUHU216HW,2013-05-03 23:26:00,
2013-05-03 19:31:00,63.9,45.4,30.14,East,90,2.5,3.4,51,0.00,,,0.00,WUHU216HW,2013-05-03 23:31:00,
2013-05-03 19:36:00,63.5,45.0,30.14,East,90,2.9,3.4,51,0.00,,,0.00,WUHU216HW,2013-05-03 23:36:00,
2013-05-03 19:41:00,63.4,45.4,30.14,ESE,113,3.8,4.0,52,0.00,,,0.00,WUHU216HW,2013-05-03 23:41:00,
2013-05-03 19:46:00,63.4,45.4,30.14,ENE,68,1.3,4.0,52,0.00,,,0.00,WUHU216HW,2013-05-03 23:46:00,
2013-05-03 19:51:00,63.0,45.0,30.15,East,90,1.8,4.5,52,0.00,,,0.00,WUHU216HW,2013-05-03 23:51:00,
2013-05-03 19:56:00,62.5,45.6,30.15,East,90,0.9,4.5,54,0.00,,,0.00,WUHU216HW,2013-05-03 23:56:00,
2013-05-03 20:01:00,62.3,45.4,30.15,SSW,203,2.0,4.5,54,0.00,,,0.00,WUHU216HW,2013-05-04 00:01:00,
2013-05-03 20:06:00,62.1,45.7,30.15,ENE,68,2.5,5.1,55,0.00,,,0.00,WUHU216HW,2013-05-04 00:06:00,
2013-05-03 20:11:00,61.9,45.6,30.15,ENE,68,3.4,5.1,55,0.00,,,0.00,WUHU216HW,2013-05-04 00:11:00,
2013-05-03 20:16:00,61.7,45.8,30.16,ENE,68,2.7,5.4,56,0.00,,,0.00,WUHU216HW,2013-05-04 00:16:00,
2013-05-03 20:21:00,61.4,46.0,30.16,East,90,3.6,5.4,57,0.00,,,0.00,WUHU216HW,2013-05-04 00:21:00,
2013-05-03 20:26:00,61.0,45.7,30.16,East,90,2.5,4.9,57,0.00,,,0.00,WUHU216HW,2013-05-04 00:26:00,
2013-05-03 20:31:00,60.8,46.0,30.16,ENE,68,2.2,4.7,58,0.00,,,0.00,WUHU216HW,2013-05-04 00:31:00,
2013-05-03 20:36:00,60.5,45.6,30.16,ENE,68,1.8,4.7,58,0.00,,,0.00,WUHU216HW,2013-05-04 00:36:00,
2013-05-03 20:41:00,60.1,45.8,30.16,ESE,113,0.9,4.7,59,0.00,,,0.00,WUHU216HW,2013-05-04 00:41:00,
2013-05-03 20:46:00,59.8,45.5,30.16,NE,45,3.6,3.8,59,0.00,,,0.00,WUHU216HW,2013-05-04 00:46:00,
2013-05-03 20:51:00,59.6,45.3,30.16,East,90,2.0,3.8,59,0.00,,,0.00,WUHU216HW,2013-05-04 00:51:00,
2013-05-03 20:56:00,59.4,45.1,30.16,NE,45,2.7,5.1,59,0.00,,,0.00,WUHU216HW,2013-05-04 00:56:00,
2013-05-03 21:01:00,58.9,44.1,30.17,East,90,3.1,5.1,58,0.00,,,0.00,WUHU216HW,2013-05-04 01:01:00,
2013-05-03 21:06:00,58.7,43.9,30.17,ENE,68,4.5,5.1,58,0.00,,,0.00,WUHU216HW,2013-05-04 01:06:00,
2013-05-03 21:11:00,58.5,43.7,30.17,East,90,2.5,5.1,58,0.00,,,0.00,WUHU216HW,2013-05-04 01:11:00,
2013-05-03 21:16:00,58.3,43.6,30.17,East,90,2.5,4.5,58,0.00,,,0.00,WUHU216HW,2013-05-04 01:16:00,
2013-05-03 21:21:00,58.1,43.5,30.17,East,90,3.6,3.6,58,0.00,,,0.00,WUHU216HW,2013-05-04 01:21:00,
2013-05-03 21:26:00,58.1,43.5,30.18,ESE,113,2.2,3.6,58,0.00,,,0.00,WUHU216HW,2013-05-04 01:26:00,
2013-05-03 21:31:00,58.0,43.3,30.18,NE,45,0.9,3.6,58,0.00,,,0.00,WUHU216HW,2013-05-04 01:31:00,
2013-05-03 21:36:00,57.8,43.1,30.18,East,90,3.4,3.4,58,0.00,,,0.00,WUHU216HW,2013-05-04 01:36:00,
2013-05-03 21:41:00,57.6,42.9,30.18,East,90,2.2,3.4,58,0.00,,,0.00,WUHU216HW,2013-05-04 01:41:00,
2013-05-03 21:46:00,57.4,43.3,30.19,ENE,68,1.3,4.7,59,0.00,,,0.00,WUHU216HW,2013-05-04 01:46:00,
2013-05-03 21:51:00,57.2,43.1,30.18,NE,45,2.0,4.7,59,0.00,,,0.00,WUHU216HW,2013-05-04 01:51:00,
2013-05-03 21:56:00,57.1,43.4,30.18,East,90,1.3,4.5,60,0.00,,,0.00,WUHU216HW,2013-05-04 01:56:00,
2013-05-03 22:01:00,56.9,43.2,30.18,East,90,1.6,4.5,60,0.00,,,0.00,WUHU216HW,2013-05-04 02:01:00,
2013-05-03 22:06:00,56.5,42.8,30.18,East,90,2.0,3.4,60,0.00,,,0.00,WUHU216HW,2013-05-04 02:06:00,
2013-05-03 22:11:00,56.5,43.2,30.18,ESE,113,1.1,3.4,61,0.00,,,0.00,WUHU216HW,2013-05-04 02:11:00,
2013-05-03 22:16:00,56.3,43.0,30.18,NNE,23,1.8,3.4,61,0.00,,,0.00,WUHU216HW,2013-05-04 02:16:00,
2013-05-03 22:21:00,56.2,42.9,30.18,ESE,113,0.9,3.4,61,0.00,,,0.00,WUHU216HW,2013-05-04 02:21:00,
2013-05-03 22:26:00,56.0,43.1,30.18,ESE,113,2.0,2.5,62,0.00,,,0.00,WUHU216HW,2013-05-04 02:26:00,
2013-05-03 22:31:00,55.8,42.9,30.18,East,90,1.1,2.0,62,0.00,,,0.00,WUHU216HW,2013-05-04 02:31:00,
2013-05-03 22:36:00,55.8,43.4,30.17,East,90,0.9,2.0,63,0.00,,,0.00,WUHU216HW,2013-05-04 02:36:00,
2013-05-03 22:41:00,55.6,43.2,30.17,ESE,113,1.1,1.8,63,0.00,,,0.00,WUHU216HW,2013-05-04 02:41:00,
2013-05-03 22:46:00,55.4,43.0,30.17,NNE,23,1.6,2.0,63,0.00,,,0.00,WUHU216HW,2013-05-04 02:46:00,
2013-05-03 22:51:00,55.1,43.1,30.17,ENE,68,1.3,2.2,64,0.00,,,0.00,WUHU216HW,2013-05-04 02:51:00,
2013-05-03 22:56:00,54.9,42.9,30.17,ENE,68,1.3,2.2,64,0.00,,,0.00,WUHU216HW,2013-05-04 02:56:00,
2013-05-03 23:01:00,54.7,43.1,30.17,ENE,68,1.3,2.0,65,0.00,,,0.00,WUHU216HW,2013-05-04 03:01:00,
2013-05-03 23:06:00,54.5,43.0,30.16,East,90,2.2,2.5,65,0.00,,,0.00,WUHU216HW,2013-05-04 03:06:00,
2013-05-03 23:11:00,54.4,42.9,30.16,East,90,2.2,2.9,65,0.00,,,0.00,WUHU216HW,2013-05-04 03:11:00,
2013-05-03 23:16:00,54.4,42.9,30.16,East,90,1.1,2.9,65,0.00,,,0.00,WUHU216HW,2013-05-04 03:16:00,
2013-05-03 23:21:00,54.4,43.2,30.16,NNE,23,0.4,2.2,66,0.00,,,0.00,WUHU216HW,2013-05-04 03:21:00,
2013-05-03 23:26:00,54.4,43.2,30.16,SE,135,0.9,2.0,66,0.00,,,0.00,WUHU216HW,2013-05-04 03:26:00,
2013-05-03 23:31:00,54.2,43.0,30.16,NE,45,0.4,1.1,66,0.00,,,0.00,WUHU216HW,2013-05-04 03:31:00,
2013-05-03 23:36:00,54.0,42.8,30.16,ENE,68,0.4,1.1,66,0.00,,,0.00,WUHU216HW,2013-05-04 03:36:00,
2013-05-03 23:41:00,54.0,43.3,30.16,East,90,0.4,1.3,67,0.00,,,0.00,WUHU216HW,2013-05-04 03:41:00,
2013-05-03 23:46:00,53.8,43.1,30.16,East,90,0.9,3.4,67,0.00,,,0.00,WUHU216HW,2013-05-04 03:46:00,
2013-05-03 23:51:00,53.6,43.3,30.16,ENE,68,1.1,3.4,68,0.00,,,0.00,WUHU216HW,2013-05-04 03:51:00,
2013-05-03 23:56:00,53.6,43.3,30.16,ENE,68,0.4,1.1,68,0.00,,,0.00,WUHU216HW,2013-05-04 03:56:00,